বাংলা English Search

  Rain/thunder showers accompanied by temporary gusty/squally wind  is likely to occur at one or two places over Rangpur,Mymensingh & Sylhet  divisions and the districts of Kishoregonj & Cumilla . 

TAF


TAF VGHS 151700Z 1518/1624 24008KT 3500 HZ SCT015 BKN100
TEMPO 1518/1523 28025G35KT 2000 TSRA/RA BKN008 FEW025CB OVC090
BECMG 1600/1602 17008KT 3000 HZ FEW015 SCT100
BECMG 1603/1605 23010KT 3500 HZ SCT015 BKN100
TEMPO 1606/1612 28025G35KT 2000 TSRA/RA BKN008 FEW025CB OVC090
BECMG 1616/1618 18008KT 3200 HZ NSC=

TAF VGEG 150500Z 1506/1612 25008KT 4500 HZ FEW020
  BECMG 1520/1522 29006KT 3000 HZ FEW015
  BECMG 1522/1524 00000KT 3000 HZ FEW015
  BECMG 1601/1603 16008KT 5000 HZ NSC=

TAF VGSY150400Z 1506/1612 12005KT 4500HZ SCT015
  BECMG 1518/1520 BRV03KT 3500HZ SCT015
  BECMG 1522/1601 00000KT 3000HZ SCT012
  BECMG 1603/1605 09005KT 3500HZ FEW015
  TEMPO 1508/1512 27025G35KT 2000 TSRA/RA BKN007 FEW025CB OVC090 =

    http://live.bmd.gov.bd/p/TAF-100/